Time;durP1;ratioP1;P1;durP2;ratioP2;P2;SDS_P1;SDS_P2;PMS_P1;PMS_P2;Temp;Humidity;BMP_temperature;BMP_pressure;BME280_temperature;BME280_humidity;BME280_pressure;Samples;Min_cycle;Max_cycle;Signal;HPM_P1;HPM_P2
2022/01/11 00:00:35;;;;;;;203.80;56.38;;;-0.90;99.90;;;;;;5088951;28;20119;-76
2022/01/11 00:03:03;;;;;;;211.23;57.55;;;-1.00;99.90;;;;;;5081429;28;20036;-76
2022/01/11 00:07:56;;;;;;;190.48;55.35;;;-1.10;99.90;;;;;;5086426;28;20457;-76
2022/01/11 00:10:35;;;;;;;183.50;56.28;;;-1.10;99.90;;;;;;5080430;28;20387;-76
2022/01/11 00:13:00;;;;;;;190.10;55.45;;;-1.10;99.90;;;;;;5079229;28;20127;-76
2022/01/11 00:15:27;;;;;;;186.70;56.38;;;-1.20;99.90;;;;;;5088881;28;20565;-76
2022/01/11 00:17:54;;;;;;;193.27;56.55;;;-1.10;99.90;;;;;;5075942;28;20055;-76
2022/01/11 00:20:21;;;;;;;194.93;56.90;;;-1.20;99.90;;;;;;5094106;28;20287;-76
2022/01/11 00:25:26;;;;;;;203.50;54.10;;;-1.20;99.90;;;;;;5082836;28;20216;-76
2022/01/11 00:27:52;;;;;;;183.63;55.42;;;-1.30;99.90;;;;;;5070459;28;20043;-76
2022/01/11 00:30:18;;;;;;;194.70;55.50;;;-1.30;99.90;;;;;;5077506;28;20055;-76
2022/01/11 00:32:50;;;;;;;184.68;54.10;;;-1.30;99.90;;;;;;5075367;28;20423;-76
2022/01/11 00:35:17;;;;;;;170.40;52.53;;;-1.30;99.90;;;;;;5084754;28;20133;-75
2022/01/11 00:37:44;;;;;;;176.23;54.97;;;-1.30;99.90;;;;;;5095954;28;20075;-75
2022/01/11 00:40:11;;;;;;;192.32;56.63;;;-1.30;99.90;;;;;;5070624;28;20035;-75
2022/01/11 00:42:37;;;;;;;176.35;55.17;;;-1.30;99.90;;;;;;5087069;28;20077;-75
2022/01/11 00:45:04;;;;;;;180.88;54.92;;;-1.30;99.90;;;;;;5087993;28;20094;-75
2022/01/11 00:47:30;;;;;;;186.45;52.58;;;-1.20;99.90;;;;;;5096281;28;20040;-75
2022/01/11 00:49:56;;;;;;;186.73;53.67;;;-1.30;99.90;;;;;;5085996;28;20048;-75
2022/01/11 00:52:21;;;;;;;176.75;51.70;;;-1.20;99.90;;;;;;5086507;28;20051;-75
2022/01/11 00:54:47;;;;;;;194.90;52.83;;;-1.20;99.90;;;;;;5079406;28;20452;-75
2022/01/11 00:57:13;;;;;;;180.13;51.00;;;-1.20;99.90;;;;;;5070594;28;20032;-75
2022/01/11 00:59:38;;;;;;;163.05;47.75;;;-1.30;99.90;;;;;;5062021;28;20492;-74
2022/01/11 01:02:04;;;;;;;170.38;49.85;;;-1.20;99.90;;;;;;5101305;28;20127;-75
2022/01/11 01:04:30;;;;;;;174.07;48.88;;;-1.30;99.90;;;;;;5076947;28;20163;-75
2022/01/11 01:06:56;;;;;;;187.50;48.67;;;-1.30;99.90;;;;;;5084482;28;20541;-75
2022/01/11 01:09:23;;;;;;;170.65;48.03;;;-1.30;99.90;;;;;;5090655;28;20126;-75
2022/01/11 01:11:48;;;;;;;160.60;46.67;;;-1.30;99.90;;;;;;5085745;28;20048;-75
2022/01/11 01:14:15;;;;;;;161.93;46.72;;;-1.30;99.90;;;;;;5071647;28;20384;-75
2022/01/11 01:16:41;;;;;;;171.95;46.47;;;-1.30;99.90;;;;;;5086082;28;20070;-75
2022/01/11 01:19:06;;;;;;;172.10;48.13;;;-1.30;99.90;;;;;;5082861;28;20055;-75
2022/01/11 01:21:37;;;;;;;159.65;47.70;;;-1.40;99.90;;;;;;5085434;28;20032;-75
2022/01/11 01:24:05;;;;;;;181.77;48.63;;;-1.40;99.90;;;;;;5087486;28;20092;-75
2022/01/11 01:26:31;;;;;;;179.25;47.58;;;-1.40;99.90;;;;;;5085782;28;20044;-75
2022/01/11 01:28:59;;;;;;;176.93;47.55;;;-1.30;99.90;;;;;;5069213;28;20052;-74
2022/01/11 01:31:25;;;;;;;192.90;52.03;;;-1.30;99.90;;;;;;5087675;28;20442;-74
2022/01/11 01:33:51;;;;;;;188.27;48.95;;;-1.30;99.90;;;;;;5086550;28;20050;-75
2022/01/11 01:36:16;;;;;;;169.98;46.75;;;-1.30;99.90;;;;;;5067767;28;20048;-75
2022/01/11 01:38:42;;;;;;;181.70;46.45;;;-1.30;99.90;;;;;;5088553;28;20032;-75
2022/01/11 01:41:14;;;;;;;177.00;48.45;;;-1.30;99.90;;;;;;5088228;28;20036;-74
2022/01/11 01:43:40;;;;;;;162.95;45.47;;;-1.30;99.90;;;;;;5091044;28;20089;-74
2022/01/11 01:46:05;;;;;;;166.35;45.50;;;-1.30;99.90;;;;;;5098563;28;20431;-74
2022/01/11 01:48:31;;;;;;;182.15;47.58;;;-1.30;99.90;;;;;;5084793;28;20659;-74
2022/01/11 01:50:57;;;;;;;187.73;47.85;;;-1.30;99.90;;;;;;5090633;28;20390;-74
2022/01/11 01:53:23;;;;;;;190.95;49.15;;;-1.30;99.90;;;;;;5087574;28;20119;-74
2022/01/11 01:55:49;;;;;;;168.93;48.80;;;-1.20;99.90;;;;;;5086153;28;20514;-74
2022/01/11 01:58:15;;;;;;;164.18;46.80;;;-1.20;99.90;;;;;;5086694;28;20044;-74
2022/01/11 02:00:45;;;;;;;169.15;47.28;;;-1.20;99.90;;;;;;5083721;28;20042;-74
2022/01/11 02:03:14;;;;;;;200.80;49.90;;;-1.20;99.90;;;;;;5069394;28;20065;-74
2022/01/11 02:05:41;;;;;;;201.98;49.40;;;-1.20;99.90;;;;;;5085678;28;20027;-74
2022/01/11 02:08:08;;;;;;;202.52;48.33;;;-1.20;99.90;;;;;;5084085;28;20109;-74
2022/01/11 02:10:37;;;;;;;209.32;51.30;;;-1.20;99.90;;;;;;5087117;28;20044;-73
2022/01/11 02:13:03;;;;;;;259.75;54.20;;;-1.20;99.90;;;;;;5092317;28;20081;-74
2022/01/11 02:15:28;;;;;;;273.90;55.95;;;-1.20;99.90;;;;;;5092587;28;20067;-73
2022/01/11 02:17:54;;;;;;;299.33;56.15;;;-1.20;99.90;;;;;;5089740;28;20120;-74
2022/01/11 02:20:19;;;;;;;288.98;57.40;;;-1.20;99.90;;;;;;5094600;28;20036;-74
2022/01/11 02:22:45;;;;;;;272.13;54.75;;;-1.20;99.90;;;;;;5069580;28;20032;-73
2022/01/11 02:25:11;;;;;;;268.60;54.22;;;-1.10;99.90;;;;;;5085638;28;20040;-73
2022/01/11 02:27:36;;;;;;;300.90;54.97;;;-1.10;99.90;;;;;;5068686;28;20036;-73
2022/01/11 02:30:05;;;;;;;278.20;57.28;;;-1.10;99.90;;;;;;5084932;28;20040;-74
2022/01/11 02:32:30;;;;;;;324.13;61.88;;;-1.00;99.90;;;;;;5085767;28;20044;-74
2022/01/11 02:34:56;;;;;;;318.38;56.38;;;-1.00;99.90;;;;;;5091665;28;20054;-73
2022/01/11 02:37:21;;;;;;;366.17;61.95;;;-1.00;99.90;;;;;;5103661;28;20055;-74
2022/01/11 02:39:47;;;;;;;259.00;55.60;;;-0.90;99.90;;;;;;5090475;28;20513;-74
2022/01/11 02:42:13;;;;;;;255.25;53.17;;;-0.90;99.90;;;;;;5086964;28;20044;-74
2022/01/11 02:44:39;;;;;;;271.58;59.92;;;-0.90;99.90;;;;;;5087738;28;20043;-74
2022/01/11 02:47:05;;;;;;;261.35;56.30;;;-0.90;99.90;;;;;;5066973;28;20040;-74
2022/01/11 02:49:31;;;;;;;246.13;58.35;;;-0.80;99.90;;;;;;5088672;28;20085;-74
2022/01/11 02:51:57;;;;;;;260.58;58.88;;;-0.90;99.90;;;;;;5084861;28;21289;-74
2022/01/11 02:54:23;;;;;;;287.15;58.83;;;-0.80;99.90;;;;;;5093493;28;20493;-74
2022/01/11 02:56:50;;;;;;;211.23;52.10;;;-0.80;99.90;;;;;;5088772;28;20479;-73
2022/01/11 02:59:16;;;;;;;219.25;51.03;;;-0.80;99.90;;;;;;5075550;28;20467;-74
2022/01/11 03:01:42;;;;;;;244.20;55.30;;;-0.80;99.90;;;;;;5085393;28;20114;-74
2022/01/11 03:04:07;;;;;;;222.70;51.08;;;-0.80;99.90;;;;;;5091792;28;20131;-74
2022/01/11 03:06:33;;;;;;;215.65;51.17;;;-0.70;99.90;;;;;;5080322;28;20039;-74
2022/01/11 03:08:59;;;;;;;205.43;49.67;;;-0.70;99.90;;;;;;5100069;28;20468;-74
2022/01/11 03:11:31;;;;;;;216.77;52.10;;;-0.70;99.90;;;;;;5100395;28;20502;-74
2022/01/11 03:13:57;;;;;;;;;;;-0.60;99.90;;;;;;5087405;28;20034;-74
2022/01/11 03:16:22;;;;;;;232.45;53.20;;;-0.60;99.90;;;;;;5098578;28;19923;-75
2022/01/11 03:18:48;;;;;;;255.15;54.70;;;-0.70;99.90;;;;;;5103831;28;20032;-74
2022/01/11 03:21:15;;;;;;;255.70;55.35;;;-0.60;99.90;;;;;;5091156;28;20060;-74
2022/01/11 03:23:41;;;;;;;271.65;56.50;;;-0.70;99.90;;;;;;5087483;28;20047;-74
2022/01/11 03:26:06;;;;;;;237.68;53.40;;;-0.70;99.90;;;;;;5069727;28;20441;-75
2022/01/11 03:28:33;;;;;;;203.07;50.22;;;-0.70;99.90;;;;;;5082760;28;20072;-74
2022/01/11 03:30:59;;;;;;;229.60;53.28;;;-0.70;99.90;;;;;;5096233;28;20402;-74
2022/01/11 03:33:25;;;;;;;232.63;53.80;;;-0.70;99.90;;;;;;5090591;28;20468;-75
2022/01/11 03:35:51;;;;;;;235.90;53.92;;;-0.70;99.90;;;;;;5086764;28;20135;-74
2022/01/11 03:38:17;;;;;;;202.23;49.78;;;-0.70;99.90;;;;;;5093156;28;20031;-74
2022/01/11 03:40:43;;;;;;;237.85;53.65;;;-0.70;99.90;;;;;;5092521;28;20036;-74
2022/01/11 03:43:09;;;;;;;226.75;52.05;;;-0.70;99.90;;;;;;5094689;28;20046;-74
2022/01/11 03:45:35;;;;;;;250.45;53.45;;;-0.70;99.90;;;;;;5074764;28;20046;-75
2022/01/11 03:48:03;;;;;;;205.65;50.92;;;-0.70;99.90;;;;;;5092539;28;20044;-75
2022/01/11 03:50:30;;;;;;;194.23;49.33;;;-0.70;99.90;;;;;;5097207;28;20046;-74
2022/01/11 03:53:08;;;;;;;235.07;53.17;;;-0.70;99.90;;;;;;5088979;28;20043;-75
2022/01/11 03:58:13;;;;;;;210.07;48.15;;;-0.60;99.90;;;;;;5088756;28;20047;-75
2022/01/11 04:00:39;;;;;;;220.10;50.25;;;-0.60;99.90;;;;;;5088145;28;20069;-74
2022/01/11 04:03:05;;;;;;;227.63;50.40;;;-0.70;99.90;;;;;;5089979;28;20032;-74
2022/01/11 04:05:31;;;;;;;235.93;50.42;;;-0.60;99.90;;;;;;5088251;28;20050;-75
2022/01/11 04:07:56;;;;;;;226.52;49.58;;;-0.70;99.90;;;;;;5091474;28;21329;-74
2022/01/11 04:10:22;;;;;;;218.77;50.75;;;-0.60;99.90;;;;;;5104390;27;20086;-74
2022/01/11 04:12:50;;;;;;;248.73;50.33;;;-0.60;99.90;;;;;;5090164;28;20044;-74
2022/01/11 04:15:15;;;;;;;212.52;49.22;;;-0.70;99.90;;;;;;5070046;28;20036;-74
2022/01/11 04:17:41;;;;;;;222.25;48.63;;;-0.70;99.90;;;;;;5078268;28;20036;-75
2022/01/11 04:20:07;;;;;;;239.52;49.17;;;-0.70;99.90;;;;;;5083663;28;20036;-74
2022/01/11 04:22:33;;;;;;;216.48;47.78;;;-0.70;99.90;;;;;;5106003;27;20535;-76
2022/01/11 04:24:59;;;;;;;198.63;45.30;;;-0.70;99.90;;;;;;5088381;28;20146;-77
2022/01/11 04:27:24;;;;;;;228.90;49.35;;;-0.70;99.90;;;;;;5077821;28;20036;-74
2022/01/11 04:29:50;;;;;;;215.13;47.40;;;-0.70;99.90;;;;;;5085741;28;20056;-75
2022/01/11 04:32:15;;;;;;;202.23;47.70;;;-0.80;99.90;;;;;;5092112;28;20086;-74
2022/01/11 04:34:41;;;;;;;218.10;46.35;;;-0.80;99.90;;;;;;5087886;28;20063;-74
2022/01/11 04:37:06;;;;;;;178.73;43.65;;;-0.80;99.90;;;;;;5087508;28;20400;-74
2022/01/11 04:39:32;;;;;;;214.65;48.97;;;-0.80;99.90;;;;;;5092799;28;20376;-74
2022/01/11 04:41:58;;;;;;;193.90;46.45;;;-0.80;99.90;;;;;;5087389;28;20032;-74
2022/01/11 04:44:23;;;;;;;225.18;50.03;;;-0.80;99.90;;;;;;5080906;28;20032;-75
2022/01/11 04:46:49;;;;;;;189.25;44.30;;;-0.90;99.90;;;;;;5085664;28;20456;-74
2022/01/11 04:49:15;;;;;;;213.25;46.65;;;-0.90;99.90;;;;;;5099596;28;20524;-73
2022/01/11 04:51:40;;;;;;;200.85;46.13;;;-0.90;99.90;;;;;;5095902;28;20051;-74
2022/01/11 04:54:07;;;;;;;185.82;43.78;;;-0.90;99.90;;;;;;5096644;28;20073;-74
2022/01/11 04:56:32;;;;;;;197.85;46.58;;;-0.90;99.90;;;;;;5098617;28;20074;-75
2022/01/11 04:58:58;;;;;;;204.57;46.55;;;-0.90;99.90;;;;;;5084440;28;20333;-73
2022/01/11 05:01:24;;;;;;;201.18;45.72;;;-0.90;99.90;;;;;;5088034;28;20032;-74
2022/01/11 05:03:50;;;;;;;179.02;43.05;;;-1.00;99.90;;;;;;5083481;28;20036;-74
2022/01/11 05:06:15;;;;;;;189.05;45.17;;;-0.90;99.90;;;;;;5079008;28;20036;-74
2022/01/11 05:08:42;;;;;;;190.57;42.63;;;-0.90;99.90;;;;;;5096232;28;20039;-74
2022/01/11 05:11:08;;;;;;;193.65;43.78;;;-0.90;99.90;;;;;;5088559;28;20043;-74
2022/01/11 05:13:34;;;;;;;197.38;43.90;;;-0.90;99.90;;;;;;5069023;28;20032;-75
2022/01/11 05:16:02;;;;;;;183.90;41.75;;;-0.90;99.90;;;;;;5087052;28;20059;-76
2022/01/11 05:18:29;;;;;;;189.57;42.58;;;-0.90;99.90;;;;;;5088234;28;20111;-74
2022/01/11 05:20:54;;;;;;;186.60;42.53;;;-0.90;99.90;;;;;;5086131;28;20116;-74
2022/01/11 05:23:20;;;;;;;196.73;44.78;;;-0.90;99.90;;;;;;5082331;28;20272;-75
2022/01/11 05:25:45;;;;;;;185.98;42.55;;;-0.90;99.90;;;;;;5096997;28;20077;-75
2022/01/11 05:28:11;;;;;;;182.52;41.55;;;-0.90;99.90;;;;;;5088347;28;20489;-76
2022/01/11 05:30:37;;;;;;;181.90;42.67;;;-0.90;99.90;;;;;;5096228;28;20051;-76
2022/01/11 05:33:03;;;;;;;181.07;43.13;;;-0.90;99.90;;;;;;5086694;28;20083;-74
2022/01/11 05:35:28;;;;;;;191.35;43.40;;;-0.90;99.90;;;;;;5086875;28;20039;-74
2022/01/11 05:37:54;;;;;;;197.30;44.13;;;-0.90;99.90;;;;;;5096332;28;20093;-73
2022/01/11 05:40:20;;;;;;;192.60;43.40;;;-0.90;99.90;;;;;;5097389;28;20027;-75
2022/01/11 05:42:48;;;;;;;198.52;44.90;;;-0.90;99.90;;;;;;5076494;28;20555;-73
2022/01/11 05:45:15;;;;;;;192.10;44.40;;;-0.90;99.90;;;;;;5087330;28;20478;-74
2022/01/11 05:47:41;;;;;;;189.25;43.55;;;-0.90;99.90;;;;;;5088600;28;20075;-74
2022/01/11 05:50:09;;;;;;;205.40;44.38;;;-0.90;99.90;;;;;;5085474;28;20031;-74
2022/01/11 05:52:36;;;;;;;189.20;42.20;;;-0.90;99.90;;;;;;5086548;28;20180;-74
2022/01/11 05:55:03;;;;;;;190.40;43.70;;;-0.90;99.90;;;;;;5085943;28;20126;-74
2022/01/11 05:57:29;;;;;;;165.98;40.17;;;-1.00;99.90;;;;;;5083724;28;20145;-74
2022/01/11 05:59:54;;;;;;;170.55;40.60;;;-1.00;99.90;;;;;;5083730;28;20482;-74
2022/01/11 06:02:20;;;;;;;172.18;39.15;;;-1.00;99.90;;;;;;5069551;28;20035;-74
2022/01/11 06:04:45;;;;;;;173.18;40.50;;;-1.00;99.90;;;;;;5075004;28;20054;-75
2022/01/11 06:07:11;;;;;;;166.45;40.78;;;-1.00;99.90;;;;;;5086999;28;20039;-75
2022/01/11 06:09:36;;;;;;;165.98;40.05;;;-1.10;99.90;;;;;;5080358;28;20100;-74
2022/01/11 06:12:02;;;;;;;162.90;41.13;;;-1.10;99.90;;;;;;5088270;28;20044;-74
2022/01/11 06:14:28;;;;;;;164.45;39.28;;;-1.10;99.90;;;;;;5069808;28;20051;-74
2022/01/11 06:16:53;;;;;;;162.85;39.72;;;-1.10;99.90;;;;;;5079860;28;20345;-73
2022/01/11 06:19:19;;;;;;;185.10;41.20;;;-1.10;99.90;;;;;;5082417;28;20450;-74
2022/01/11 06:21:44;;;;;;;172.02;40.28;;;-1.10;99.90;;;;;;5089290;28;20043;-74
2022/01/11 06:24:10;;;;;;;168.68;39.63;;;-1.10;99.90;;;;;;5089847;28;20084;-75
2022/01/11 06:26:36;;;;;;;171.00;39.28;;;-1.10;99.90;;;;;;5093556;28;20118;-74
2022/01/11 06:29:02;;;;;;;163.40;39.47;;;-1.20;99.90;;;;;;5090424;28;20506;-74
2022/01/11 06:31:30;;;;;;;159.32;38.75;;;-1.20;99.90;;;;;;5071289;28;20399;-76
2022/01/11 06:33:56;;;;;;;163.07;38.90;;;-1.20;99.90;;;;;;5083840;28;20136;-74
2022/01/11 06:36:21;;;;;;;144.50;36.20;;;-1.20;99.90;;;;;;5087418;28;20078;-74
2022/01/11 06:38:47;;;;;;;152.05;36.00;;;-1.20;99.90;;;;;;5086390;28;20079;-74
2022/01/11 06:41:13;;;;;;;153.07;38.42;;;-1.20;99.90;;;;;;5089275;28;20482;-74
2022/01/11 06:43:39;;;;;;;142.23;36.88;;;-1.30;99.90;;;;;;5068973;28;20040;-73
2022/01/11 06:46:05;;;;;;;147.07;36.40;;;-1.30;99.90;;;;;;5080372;28;20219;-74
2022/01/11 06:48:32;;;;;;;151.75;36.85;;;-1.30;99.90;;;;;;5087250;28;20052;-75
2022/01/11 06:50:57;;;;;;;148.68;34.85;;;-1.30;99.90;;;;;;5075150;28;20044;-74
2022/01/11 06:53:24;;;;;;;163.20;37.95;;;-1.20;99.90;;;;;;5088575;28;20066;-74
2022/01/11 06:55:50;;;;;;;155.73;37.25;;;-1.20;99.90;;;;;;5085111;28;20509;-73
2022/01/11 06:58:16;;;;;;;149.77;35.28;;;-1.20;99.90;;;;;;5087235;28;20505;-73
2022/01/11 07:00:43;;;;;;;160.35;37.33;;;-1.20;99.90;;;;;;5062803;28;20025;-73
2022/01/11 07:03:08;;;;;;;162.57;35.20;;;-1.20;99.90;;;;;;5054318;28;20044;-74
2022/01/11 07:05:34;;;;;;;154.65;35.85;;;-1.10;99.90;;;;;;5089409;28;20036;-73
2022/01/11 07:08:00;;;;;;;161.05;36.92;;;-1.10;99.90;;;;;;5092521;28;20062;-75
2022/01/11 07:10:25;;;;;;;153.57;36.42;;;-1.10;99.90;;;;;;5076248;28;20139;-74
2022/01/11 07:12:51;;;;;;;161.27;35.05;;;-1.10;99.90;;;;;;5074525;28;20050;-73
2022/01/11 07:15:16;;;;;;;143.30;33.17;;;-1.10;99.90;;;;;;5075960;28;20071;-73
2022/01/11 07:17:42;;;;;;;147.48;34.78;;;-1.00;99.90;;;;;;5098411;28;20048;-72
2022/01/11 07:20:09;;;;;;;153.02;34.47;;;-1.00;99.90;;;;;;5086214;28;20118;-73
2022/01/11 07:22:37;;;;;;;148.32;33.85;;;-1.10;99.90;;;;;;5090120;28;20384;-74
2022/01/11 07:25:03;;;;;;;140.73;33.38;;;-1.00;99.90;;;;;;5087516;28;20580;-74
2022/01/11 07:27:29;;;;;;;148.82;34.65;;;-1.00;99.90;;;;;;5087070;28;20500;-75
2022/01/11 07:29:55;;;;;;;144.73;35.53;;;-1.00;99.90;;;;;;5092202;28;20035;-76
2022/01/11 07:32:21;;;;;;;167.07;35.50;;;-1.00;99.90;;;;;;5088089;28;20572;-74
2022/01/11 07:34:47;;;;;;;157.15;33.92;;;-1.00;99.90;;;;;;5085166;28;20032;-72
2022/01/11 07:37:12;;;;;;;150.80;34.25;;;-0.90;99.90;;;;;;5088823;28;20048;-73
2022/01/11 07:39:38;;;;;;;167.07;33.35;;;-0.90;99.90;;;;;;5086436;28;20032;-74
2022/01/11 07:42:03;;;;;;;158.82;34.75;;;-0.90;99.90;;;;;;5084030;28;20490;-74
2022/01/11 07:44:29;;;;;;;151.15;35.72;;;-0.90;99.90;;;;;;5087100;28;20050;-74
2022/01/11 07:46:54;;;;;;;147.40;32.85;;;-0.80;99.90;;;;;;5079833;28;20088;-74
2022/01/11 07:49:20;;;;;;;167.32;35.08;;;-0.80;99.90;;;;;;5083817;28;20483;-74
2022/01/11 07:51:47;;;;;;;165.57;35.13;;;-0.80;99.90;;;;;;5080648;28;20460;-73
2022/01/11 07:54:12;;;;;;;173.27;35.95;;;-0.70;99.90;;;;;;5082382;28;20441;-74
2022/01/11 07:56:38;;;;;;;175.02;36.75;;;-0.70;99.90;;;;;;5069914;28;20093;-72
2022/01/11 07:59:04;;;;;;;150.38;34.88;;;-0.70;99.90;;;;;;5087088;28;20085;-74
2022/01/11 08:01:29;;;;;;;157.15;34.42;;;-0.70;99.90;;;;;;5083611;28;20093;-75
2022/01/11 08:03:55;;;;;;;165.60;34.55;;;-0.60;99.90;;;;;;5089414;28;20044;-74
2022/01/11 08:06:21;;;;;;;159.43;36.38;;;-0.60;99.90;;;;;;5093746;28;20040;-73
2022/01/11 08:08:47;;;;;;;148.70;35.72;;;-0.60;99.90;;;;;;5092413;28;20110;-73
2022/01/11 08:11:13;;;;;;;153.45;35.67;;;-0.60;99.90;;;;;;5093272;28;20107;-74
2022/01/11 08:13:39;;;;;;;180.30;38.90;;;-0.60;99.90;;;;;;5095894;28;20044;-74
2022/01/11 08:16:05;;;;;;;181.30;37.70;;;-0.50;99.90;;;;;;5091917;28;20035;-73
2022/01/11 08:18:30;;;;;;;170.68;36.60;;;-0.40;99.90;;;;;;5109350;27;20083;-75
2022/01/11 08:20:56;;;;;;;179.48;37.70;;;-0.40;99.90;;;;;;5093739;28;20067;-74
2022/01/11 08:23:21;;;;;;;183.40;37.00;;;-0.30;99.90;;;;;;5098068;28;20090;-73
2022/01/11 08:25:47;;;;;;;187.15;39.50;;;-0.40;99.90;;;;;;5089173;28;20040;-74
2022/01/11 08:28:13;;;;;;;183.43;38.47;;;-0.30;99.90;;;;;;5090079;28;20372;-75
2022/01/11 08:30:39;;;;;;;197.45;37.40;;;-0.30;99.90;;;;;;5090064;28;20509;-72
2022/01/11 08:33:06;;;;;;;207.38;38.80;;;-0.20;99.90;;;;;;5089122;28;20032;-72
2022/01/11 08:35:33;;;;;;;212.52;41.17;;;-0.20;99.90;;;;;;5073112;28;20444;-75
2022/01/11 08:37:58;;;;;;;198.70;40.40;;;-0.10;99.90;;;;;;5083056;28;20058;-75
2022/01/11 08:40:25;;;;;;;180.95;37.63;;;-0.10;99.90;;;;;;5089797;28;20122;-75
2022/01/11 08:42:52;;;;;;;206.27;41.10;;;-0.10;99.90;;;;;;5073515;28;20066;-75
2022/01/11 08:45:18;;;;;;;204.77;38.33;;;0.00;99.90;;;;;;5088406;28;20048;-73
2022/01/11 08:47:43;;;;;;;191.23;37.65;;;0.00;99.90;;;;;;5090423;28;20036;-74
2022/01/11 08:50:11;;;;;;;199.63;41.70;;;0.00;99.90;;;;;;5069677;28;20085;-74
2022/01/11 08:52:41;;;;;;;213.63;40.92;;;0.00;99.90;;;;;;5078269;28;20046;-74
2022/01/11 08:55:08;;;;;;;205.20;39.95;;;0.10;99.90;;;;;;5079159;28;20036;-76
2022/01/11 08:57:35;;;;;;;198.73;39.17;;;0.10;99.90;;;;;;5085580;28;20068;-75
2022/01/11 09:00:06;;;;;;;203.73;39.05;;;0.10;99.90;;;;;;5094189;28;20046;-74
2022/01/11 09:02:35;;;;;;;191.98;38.95;;;0.10;99.90;;;;;;5086012;28;20032;-74
2022/01/11 09:05:01;;;;;;;187.65;38.28;;;0.10;99.90;;;;;;5086993;28;20032;-74
2022/01/11 09:07:26;;;;;;;206.63;39.70;;;0.20;99.90;;;;;;5088416;28;20050;-74
2022/01/11 09:09:52;;;;;;;215.27;39.15;;;0.20;99.90;;;;;;5084295;28;20534;-74
2022/01/11 09:12:19;;;;;;;198.85;39.92;;;0.20;99.90;;;;;;5077181;28;20341;-74
2022/01/11 09:14:46;;;;;;;221.88;40.97;;;0.20;99.90;;;;;;5080041;28;20120;-73
2022/01/11 09:17:12;;;;;;;206.15;41.85;;;0.30;99.90;;;;;;5083808;28;20028;-73
2022/01/11 09:19:38;;;;;;;213.15;39.95;;;0.30;99.90;;;;;;5079128;28;20028;-74
2022/01/11 09:22:05;;;;;;;216.60;41.20;;;0.30;99.90;;;;;;5088334;28;20043;-74
2022/01/11 09:24:31;;;;;;;221.23;40.80;;;0.30;99.90;;;;;;5088254;28;20048;-74
2022/01/11 09:26:59;;;;;;;204.40;38.65;;;0.30;99.90;;;;;;5089039;28;20047;-73
2022/01/11 09:29:26;;;;;;;207.95;42.22;;;0.30;99.90;;;;;;5084005;28;20072;-74
2022/01/11 09:31:53;;;;;;;204.68;41.83;;;0.30;99.90;;;;;;5080264;28;20048;-70
2022/01/11 09:34:18;;;;;;;209.90;40.90;;;0.40;99.90;;;;;;5090375;28;20096;-69
2022/01/11 09:36:44;;;;;;;207.00;39.97;;;0.40;99.90;;;;;;5068211;28;20032;-70
2022/01/11 09:39:10;;;;;;;192.00;40.03;;;0.40;99.90;;;;;;5069861;28;20468;-69
2022/01/11 09:41:36;;;;;;;202.50;41.13;;;0.50;99.90;;;;;;5070132;28;20040;-70
2022/01/11 09:44:02;;;;;;;185.80;42.00;;;0.40;99.90;;;;;;5087675;28;20121;-70
2022/01/11 09:46:28;;;;;;;195.52;41.20;;;0.50;99.90;;;;;;5090037;28;20599;-70
2022/01/11 09:48:54;;;;;;;202.60;41.92;;;0.50;99.90;;;;;;5106812;28;20050;-70
2022/01/11 09:51:20;;;;;;;204.88;41.92;;;0.50;99.90;;;;;;5079979;28;20064;-70
2022/01/11 09:53:46;;;;;;;196.82;41.35;;;0.50;99.90;;;;;;5081743;28;20039;-70
2022/01/11 09:56:13;;;;;;;194.00;41.40;;;0.50;99.90;;;;;;5089224;28;20051;-71
2022/01/11 09:58:40;;;;;;;199.77;41.85;;;0.50;99.90;;;;;;5089126;28;20552;-70
2022/01/11 10:01:06;;;;;;;171.02;39.53;;;0.60;99.90;;;;;;5088543;28;20467;-70
2022/01/11 10:03:52;;;;;;;196.68;41.97;;;0.50;99.90;;;;;;5088919;28;20044;-70
2022/01/11 10:06:18;;;;;;;175.43;37.55;;;0.60;99.90;;;;;;5088866;28;20043;-71
2022/01/11 10:08:43;;;;;;;187.77;41.42;;;0.60;99.90;;;;;;5087666;28;20032;-70
2022/01/11 10:11:09;;;;;;;173.55;39.03;;;0.60;99.90;;;;;;5088543;28;20166;-70
2022/01/11 10:13:37;;;;;;;178.20;38.70;;;0.70;99.90;;;;;;5090015;28;20127;-70
2022/01/11 10:16:24;;;;;;;188.88;40.45;;;0.70;99.90;;;;;;5088135;28;20036;-70
2022/01/11 10:18:52;;;;;;;166.38;38.88;;;0.70;99.90;;;;;;5083026;28;20173;-70
2022/01/11 10:21:42;;;;;;;178.93;38.60;;;0.70;99.90;;;;;;5088796;28;20036;-70
2022/01/11 10:24:23;;;;;;;178.25;38.65;;;0.70;99.90;;;;;;5088141;28;20035;-70
2022/01/11 10:26:48;;;;;;;171.13;39.15;;;0.80;99.90;;;;;;5089493;28;20039;-70
2022/01/11 10:29:35;;;;;;;193.25;40.35;;;0.80;99.90;;;;;;5070793;28;20089;-70
2022/01/11 10:32:10;;;;;;;166.70;37.50;;;0.90;99.90;;;;;;5089995;28;20510;-70
2022/01/11 10:34:36;;;;;;;168.07;40.13;;;1.00;99.90;;;;;;5088124;28;20089;-71
2022/01/11 10:37:04;;;;;;;174.15;38.97;;;1.10;99.90;;;;;;5088334;28;20044;-71
2022/01/11 10:39:30;;;;;;;155.88;37.63;;;1.20;99.90;;;;;;5094497;28;20046;-71
2022/01/11 10:41:57;;;;;;;172.35;39.30;;;1.30;99.90;;;;;;5096552;28;20122;-71
2022/01/11 10:44:51;;;;;;;161.15;36.33;;;1.40;99.90;;;;;;5097471;28;20084;-71
2022/01/11 10:47:23;;;;;;;172.90;38.40;;;1.40;99.90;;;;;;5076880;28;20048;-71
2022/01/11 10:49:54;;;;;;;160.30;37.83;;;1.50;99.90;;;;;;5097994;28;20044;-71
2022/01/11 10:52:19;;;;;;;161.90;37.53;;;1.60;99.90;;;;;;5095176;28;20147;-71
2022/01/11 10:54:46;;;;;;;155.55;38.90;;;1.60;99.90;;;;;;5117377;28;20123;-72
2022/01/11 10:57:22;;;;;;;149.18;38.47;;;1.70;99.90;;;;;;5105048;28;20553;-72
2022/01/11 11:00:29;;;;;;;136.48;36.42;;;1.70;99.90;;;;;;5077053;28;20525;-72
2022/01/11 11:03:01;;;;;;;137.23;36.40;;;1.80;99.90;;;;;;5083232;28;20133;-72
2022/01/11 11:05:34;;;;;;;137.10;35.75;;;1.80;99.90;;;;;;5077274;28;20041;-72
2022/01/11 11:08:17;;;;;;;137.77;34.95;;;1.80;99.90;;;;;;5093218;28;20075;-72
2022/01/11 11:10:50;;;;;;;146.45;36.75;;;1.80;99.90;;;;;;5098054;28;20448;-70
2022/01/11 11:13:28;;;;;;;133.80;36.20;;;1.80;99.90;;;;;;5096528;28;20036;-70
2022/01/11 11:15:56;;;;;;;130.63;34.38;;;1.80;99.90;;;;;;5081515;28;20039;-72
2022/01/11 11:18:25;;;;;;;132.90;34.72;;;1.90;99.90;;;;;;5080498;28;20043;-71
2022/01/11 11:20:51;;;;;;;122.43;35.60;;;1.90;99.90;;;;;;5097640;28;20174;-70
2022/01/11 11:23:17;;;;;;;135.95;35.22;;;1.90;99.90;;;;;;5097710;28;20119;-70
2022/01/11 11:25:44;;;;;;;122.43;33.95;;;2.00;99.90;;;;;;5115299;28;20040;-70
2022/01/11 11:28:10;;;;;;;132.10;35.85;;;2.10;99.90;;;;;;5097956;28;20040;-70
2022/01/11 11:30:36;;;;;;;126.97;33.80;;;2.10;99.90;;;;;;5097294;28;20516;-71
2022/01/11 11:33:02;;;;;;;123.32;32.50;;;2.20;99.90;;;;;;5098200;28;20059;-69
2022/01/11 11:35:28;;;;;;;120.32;33.67;;;2.30;99.90;;;;;;5097015;28;20475;-69
2022/01/11 11:38:08;;;;;;;124.85;33.55;;;2.40;99.90;;;;;;5100739;28;20096;-70
2022/01/11 11:40:36;;;;;;;123.43;34.03;;;2.50;99.90;;;;;;5096887;28;20051;-70
2022/01/11 11:43:03;;;;;;;113.38;31.60;;;2.60;99.90;;;;;;5096363;28;20521;-71
2022/01/11 11:45:37;;;;;;;120.25;32.47;;;2.80;99.90;;;;;;5097903;28;20035;-70
2022/01/11 11:48:09;;;;;;;115.97;32.05;;;2.90;99.90;;;;;;5084370;28;20495;-70
2022/01/11 11:51:14;;;;;;;105.35;29.67;;;3.00;99.90;;;;;;5089905;28;20131;-68
2022/01/11 11:53:40;;;;;;;103.47;30.35;;;3.10;99.90;;;;;;5083374;28;20058;-70
2022/01/11 11:56:29;;;;;;;93.75;29.33;;;3.20;99.90;;;;;;5093707;28;20040;-71
2022/01/11 11:58:57;;;;;;;93.70;28.42;;;3.20;99.90;;;;;;5092405;28;20101;-71
2022/01/11 12:01:45;;;;;;;100.35;27.80;;;3.20;99.90;;;;;;5077358;28;20464;-72
2022/01/11 12:05:04;;;;;;;89.22;26.95;;;3.30;99.90;;;;;;5075452;28;20048;-69
2022/01/11 12:07:40;;;;;;;99.53;27.77;;;3.30;99.90;;;;;;5073526;28;20098;-72
2022/01/11 12:10:12;;;;;;;93.85;28.30;;;3.30;99.90;;;;;;5061323;28;20080;-70
2022/01/11 12:12:54;;;;;;;101.60;28.67;;;3.40;99.90;;;;;;5073960;28;20040;-72
2022/01/11 12:15:22;;;;;;;98.43;27.35;;;3.50;99.90;;;;;;5076934;28;20032;-70
2022/01/11 12:18:12;;;;;;;97.65;27.48;;;3.50;99.90;;;;;;5099652;28;20055;-70
2022/01/11 12:20:49;;;;;;;99.93;27.95;;;3.50;99.90;;;;;;5082117;28;20054;-71
2022/01/11 12:23:41;;;;;;;99.13;27.90;;;3.60;99.90;;;;;;5076896;28;20089;-71
2022/01/11 12:26:16;;;;;;;90.78;27.27;;;3.60;99.90;;;;;;5089048;28;20041;-71
2022/01/11 12:28:43;;;;;;;97.75;27.35;;;3.70;99.90;;;;;;5073050;28;20036;-71
2022/01/11 12:31:29;;;;;;;94.78;26.92;;;3.70;99.90;;;;;;5073008;28;20041;-72